Date,TemperatureHighF,TemperatureAvgF,TemperatureLowF,DewpointHighF,DewpointAvgF,DewpointLowF,HumidityHigh,HumidityAvg,HumidityLow,PressureMaxIn,PressureMinIn,WindSpeedMaxMPH,WindSpeedAvgMPH,GustSpeedMaxMPH,PrecipitationSumIn
2013-3-1,74.0,56.9,45.7,56.2,48.2,41.8,87,74,45,30.17,29.96,9,1,9,0.00
2013-3-2,71.5,59.3,50.0,55.7,50.0,44.9,84,72,54,29.98,29.80,6,1,6,0.00
2013-3-3,66.8,56.3,50.4,51.9,48.1,44.7,86,75,48,29.86,29.78,9,2,9,0.00
2013-3-4,61.4,52.3,46.6,49.4,44.6,40.9,83,76,61,29.89,29.80,10,2,10,0.00
2013-3-5,65.3,52.9,44.3,44.2,41.8,39.2,85,68,45,29.81,29.61,17,5,17,0.00
2013-3-6,58.9,51.6,44.5,45.1,41.9,37.0,86,70,52,29.81,29.61,18,3,18,0.00
2013-3-7,62.6,49.7,40.7,44.8,40.1,35.6,86,71,40,29.74,29.57,10,1,10,0.00
2013-3-8,59.9,50.6,43.6,48.2,43.7,40.2,88,78,61,29.83,29.55,11,3,11,0.00
2013-3-9,67.5,54.3,46.6,46.8,43.3,39.8,81,68,41,30.04,29.82,12,2,12,0.00
2013-3-10,70.6,55.0,41.8,48.8,41.6,37.5,87,64,37,30.08,29.97,9,2,9,0.00
2013-3-11,72.9,56.4,43.2,50.4,43.3,37.7,83,64,37,30.01,29.84,9,1,9,0.00
2013-3-12,73.8,57.1,45.9,56.1,48.3,41.4,87,74,47,29.90,29.80,7,1,7,0.00
2013-3-13,78.7,60.9,48.1,60.9,51.6,44.1,87,73,50,29.90,29.79,8,1,8,0.00
2013-3-14,72.9,58.8,50.6,57.9,50.9,44.7,87,76,49,29.91,29.82,8,1,8,0.00
2013-3-15,71.3,56.3,46.4,53.8,47.4,41.5,86,73,48,29.87,29.79,6,1,6,0.00
2013-3-16,71.1,56.8,48.6,55.5,47.7,43.8,87,73,41,29.86,29.78,8,1,8,0.00
2013-3-17,68.4,54.4,46.3,49.9,45.0,41.6,87,72,46,29.89,29.78,11,2,11,0.00
2013-3-18,67.3,54.3,43.6,50.3,44.3,38.5,85,70,48,29.88,29.76,10,1,10,0.00
2013-3-19,72.0,56.0,47.2,49.2,43.9,39.6,86,66,40,29.89,29.79,8,1,8,0.00
2013-3-20,69.1,57.7,51.5,55.6,51.2,47.2,87,80,53,29.88,29.81,9,2,9,0.00
2013-3-21,66.1,54.8,47.9,50.2,45.2,41.9,85,71,48,29.88,29.75,11,2,11,0.00
2013-3-22,68.6,54.6,42.3,43.2,38.6,17.6,85,59,21,29.84,29.75,13,2,13,0.00
2013-3-23,71.8,55.6,43.0,44.8,38.7,26.4,87,58,23,29.86,29.77,10,2,10,0.00
2013-3-24,72.2,55.6,43.2,50.2,43.4,37.3,83,65,39,29.83,29.71,8,1,8,0.00
2013-3-25,63.7,53.1,46.6,49.2,44.3,41.1,84,73,55,29.77,29.70,9,2,9,0.00
2013-3-26,70.6,56.4,48.6,52.0,45.7,42.1,81,68,48,29.77,29.66,8,2,8,0.00
2013-3-27,68.8,57.7,49.1,54.9,49.0,42.0,84,73,55,29.76,29.69,9,1,9,0.00
2013-3-28,76.0,62.5,55.8,56.8,52.6,49.3,84,71,48,29.83,29.74,8,1,8,0.00
2013-3-29,79.9,63.0,50.6,59.1,51.7,46.2,86,69,45,29.83,29.74,11,1,11,0.00
2013-3-30,76.0,62.4,55.1,56.3,52.5,49.5,84,71,46,29.81,29.70,8,1,8,0.00
2013-3-31,72.5,60.2,51.5,53.7,50.6,47.3,86,72,48,29.81,29.71,11,2,11,0.00